createdAt,value
2023-01-12T00:02:00.093Z,10.00
2023-01-12T00:04:28.027Z,10.00
2023-01-12T00:06:55.003Z,9.90
2023-01-12T00:09:22.025Z,9.90
2023-01-12T00:11:48.941Z,9.90
2023-01-12T00:14:15.883Z,9.80
2023-01-12T00:16:43.384Z,9.80
2023-01-12T00:19:22.208Z,9.80
2023-01-12T00:22:11.565Z,9.80
2023-01-12T00:24:44.336Z,9.80
2023-01-12T00:27:17.719Z,9.80
2023-01-12T00:29:44.837Z,9.80
2023-01-12T00:32:14.396Z,9.80
2023-01-12T00:34:42.028Z,9.80
2023-01-12T00:37:09.570Z,9.70
2023-01-12T00:39:40.362Z,9.70
2023-01-12T00:42:26.490Z,9.70
2023-01-12T00:45:11.888Z,9.70
2023-01-12T00:47:38.757Z,9.60
2023-01-12T00:50:05.942Z,9.60
2023-01-12T00:52:32.875Z,9.60
2023-01-12T00:55:00.047Z,9.60
2023-01-12T00:57:28.099Z,9.50
2023-01-12T00:59:56.820Z,9.50
2023-01-12T01:02:24.061Z,9.50
2023-01-12T01:04:51.455Z,9.40
2023-01-12T01:07:18.828Z,9.40
2023-01-12T01:09:45.859Z,9.40
2023-01-12T01:12:13.395Z,9.40
2023-01-12T01:14:40.347Z,9.40
2023-01-12T01:17:07.912Z,9.40
2023-01-12T01:19:34.912Z,9.40
2023-01-12T01:22:01.848Z,9.40
2023-01-12T01:24:29.235Z,9.40
2023-01-12T01:26:56.302Z,9.40
2023-01-12T01:29:23.230Z,9.40
2023-01-12T01:31:50.227Z,9.40
2023-01-12T01:34:17.968Z,9.40
2023-01-12T01:36:44.937Z,9.40
2023-01-12T01:39:11.934Z,9.40
2023-01-12T01:41:38.909Z,9.40
2023-01-12T01:44:30.595Z,9.30
2023-01-12T01:47:07.927Z,9.30
2023-01-12T01:49:48.296Z,9.30
2023-01-12T01:52:21.755Z,9.20
2023-01-12T01:54:56.052Z,9.20
2023-01-12T01:57:40.988Z,9.20
2023-01-12T02:00:10.488Z,9.20
2023-01-12T02:02:38.996Z,9.10
2023-01-12T02:05:06.499Z,9.20
2023-01-12T02:07:34.340Z,9.20
2023-01-12T02:10:02.231Z,9.10
2023-01-12T02:12:47.686Z,9.10
2023-01-12T02:15:33.807Z,9.10
2023-01-12T02:18:20.977Z,9.10
2023-01-12T02:20:54.832Z,9.10
2023-01-12T02:23:56.052Z,9.00
2023-01-12T02:26:48.781Z,9.00
2023-01-12T02:29:18.417Z,8.90
2023-01-12T02:32:06.500Z,8.90
2023-01-12T02:35:04.684Z,8.90
2023-01-12T02:37:45.231Z,8.90
2023-01-12T02:40:37.252Z,8.90
2023-01-12T02:43:13.981Z,8.90
2023-01-12T02:45:50.497Z,8.80
2023-01-12T02:48:37.849Z,8.90
2023-01-12T02:51:19.278Z,8.80
2023-01-12T02:53:51.040Z,8.80
2023-01-12T02:56:34.393Z,8.80
2023-01-12T02:59:07.370Z,8.80
2023-01-12T03:01:36.551Z,8.80
2023-01-12T03:04:07.766Z,8.70
2023-01-12T03:07:01.050Z,8.70
2023-01-12T03:09:36.919Z,8.70
2023-01-12T03:12:06.123Z,8.70
2023-01-12T03:14:37.258Z,8.70
2023-01-12T03:17:09.724Z,8.70
2023-01-12T03:19:37.200Z,8.70
2023-01-12T03:22:08.754Z,8.60
2023-01-12T03:24:40.101Z,8.60
2023-01-12T03:27:14.402Z,8.50
2023-01-12T03:29:46.298Z,8.50
2023-01-12T03:32:13.400Z,8.50
2023-01-12T03:34:40.759Z,8.50
2023-01-12T03:37:14.778Z,8.50
2023-01-12T03:40:00.407Z,8.50
2023-01-12T03:42:38.162Z,8.50
2023-01-12T03:45:28.431Z,8.50
2023-01-12T03:48:22.054Z,8.40
2023-01-12T03:50:54.363Z,8.40
2023-01-12T03:53:23.460Z,8.40
2023-01-12T03:55:55.396Z,8.40
2023-01-12T03:58:23.929Z,8.30
2023-01-12T04:00:51.318Z,8.40
2023-01-12T04:03:18.644Z,8.30
2023-01-12T04:05:46.031Z,8.30
2023-01-12T04:08:16.173Z,8.30
2023-01-12T04:10:43.502Z,8.20
2023-01-12T04:13:10.762Z,8.20
2023-01-12T04:15:42.327Z,8.20
2023-01-12T04:18:10.674Z,8.30
2023-01-12T04:20:38.671Z,8.20
2023-01-12T04:23:09.815Z,8.30
2023-01-12T04:25:36.865Z,8.30
2023-01-12T04:28:04.379Z,8.20
2023-01-12T04:30:32.888Z,8.30
2023-01-12T04:33:00.713Z,8.20
2023-01-12T04:35:27.804Z,8.20
2023-01-12T04:37:55.055Z,8.20
2023-01-12T04:40:22.036Z,8.20
2023-01-12T04:43:08.724Z,8.30
2023-01-12T04:45:43.548Z,8.30
2023-01-12T04:48:12.704Z,8.30
2023-01-12T04:50:40.683Z,8.30
2023-01-12T04:53:10.073Z,8.30
2023-01-12T04:55:38.748Z,8.30
2023-01-12T04:58:06.169Z,8.30
2023-01-12T05:00:33.600Z,8.20
2023-01-12T05:03:03.721Z,8.20
2023-01-12T05:05:32.429Z,8.20
2023-01-12T05:08:19.829Z,8.20
2023-01-12T05:10:58.317Z,8.10
2023-01-12T05:13:30.802Z,8.10
2023-01-12T05:16:06.927Z,8.10
2023-01-12T05:18:33.905Z,8.10
2023-01-12T05:21:01.008Z,8.00
2023-01-12T05:23:28.036Z,8.00
2023-01-12T05:25:59.881Z,8.00
2023-01-12T05:28:30.846Z,8.10
2023-01-12T05:31:08.773Z,8.00
2023-01-12T05:33:37.131Z,8.10
2023-01-12T05:36:05.847Z,8.10
2023-01-12T05:38:33.126Z,8.10
2023-01-12T05:41:05.145Z,8.10
2023-01-12T05:43:50.420Z,8.10
2023-01-12T05:46:25.884Z,8.20
2023-01-12T05:48:54.713Z,8.20
2023-01-12T05:51:23.020Z,8.20
2023-01-12T05:53:50.109Z,8.20
2023-01-12T05:56:17.066Z,8.10
2023-01-12T05:58:48.398Z,8.20
2023-01-12T06:01:15.586Z,8.10
2023-01-12T06:03:42.636Z,8.20
2023-01-12T06:06:09.647Z,8.10
2023-01-12T06:08:36.628Z,8.10
2023-01-12T06:11:04.182Z,8.10
2023-01-12T06:13:50.882Z,8.10
2023-01-12T06:16:17.948Z,8.10
2023-01-12T06:18:44.934Z,8.10
2023-01-12T06:21:11.876Z,8.10
2023-01-12T06:23:39.031Z,8.10
2023-01-12T06:26:10.435Z,8.00
2023-01-12T06:28:39.194Z,8.00
2023-01-12T06:31:08.255Z,8.10
2023-01-12T06:33:36.230Z,8.00
2023-01-12T06:36:04.209Z,8.00
2023-01-12T06:38:32.828Z,8.00
2023-01-12T06:41:29.440Z,8.10
2023-01-12T06:43:57.485Z,8.10
2023-01-12T06:46:25.542Z,8.10
2023-01-12T06:48:54.632Z,8.10
2023-01-12T06:51:21.635Z,8.10
2023-01-12T06:53:48.666Z,8.10
2023-01-12T06:56:15.898Z,8.00
2023-01-12T06:58:43.509Z,8.00
2023-01-12T07:01:10.819Z,8.00
2023-01-12T07:03:37.888Z,8.10
2023-01-12T07:06:05.123Z,8.10
2023-01-12T07:08:32.720Z,8.10
2023-01-12T07:11:04.175Z,8.10
2023-01-12T07:13:31.735Z,8.10
2023-01-12T07:16:02.319Z,8.10
2023-01-12T07:18:31.139Z,8.10
2023-01-12T07:20:58.091Z,8.10
2023-01-12T07:23:25.349Z,8.10
2023-01-12T07:25:52.331Z,8.10
2023-01-12T07:28:19.344Z,8.10
2023-01-12T07:30:46.330Z,8.10
2023-01-12T07:33:15.769Z,8.10
2023-01-12T07:35:44.210Z,8.10
2023-01-12T07:38:11.258Z,8.10
2023-01-12T07:40:38.308Z,8.10
2023-01-12T07:43:08.176Z,8.10
2023-01-12T07:45:36.492Z,8.10
2023-01-12T07:48:03.770Z,8.10
2023-01-12T07:50:30.782Z,8.10
2023-01-12T07:53:02.078Z,8.20
2023-01-12T07:55:30.879Z,8.20
2023-01-12T07:58:06.557Z,8.10
2023-01-12T08:00:33.600Z,8.10
2023-01-12T08:03:09.095Z,8.10
2023-01-12T08:05:37.247Z,8.20
2023-01-12T08:08:05.554Z,8.20
2023-01-12T08:10:32.552Z,8.20
2023-01-12T08:12:59.554Z,8.30
2023-01-12T08:15:27.943Z,8.30
2023-01-12T08:18:04.454Z,8.30
2023-01-12T08:20:34.924Z,8.40
2023-01-12T08:23:10.158Z,8.40
2023-01-12T08:25:44.586Z,8.50
2023-01-12T08:28:19.308Z,8.50
2023-01-12T08:30:48.796Z,8.60
2023-01-12T08:33:16.745Z,8.60
2023-01-12T08:35:46.276Z,8.70
2023-01-12T08:38:13.686Z,8.70
2023-01-12T08:40:59.539Z,8.80
2023-01-12T08:43:44.874Z,8.80
2023-01-12T08:46:12.085Z,8.90
2023-01-12T08:48:40.329Z,9.00
2023-01-12T08:51:08.234Z,9.00
2023-01-12T08:53:35.623Z,9.10
2023-01-12T08:56:03.255Z,9.20
2023-01-12T08:58:31.354Z,9.20
2023-01-12T09:01:05.435Z,9.20
2023-01-12T09:03:32.391Z,9.30
2023-01-12T09:05:59.410Z,9.40
2023-01-12T09:08:26.320Z,9.40
2023-01-12T09:10:53.372Z,9.40
2023-01-12T09:13:20.421Z,9.50
2023-01-12T09:16:01.087Z,9.50
2023-01-12T09:18:35.088Z,9.50
2023-01-12T09:21:07.516Z,9.60
2023-01-12T09:23:34.967Z,9.60
2023-01-12T09:26:04.971Z,9.70
2023-01-12T09:28:32.631Z,9.70
2023-01-12T09:31:06.977Z,9.70
2023-01-12T09:33:35.159Z,9.70
2023-01-12T09:36:13.386Z,9.80
2023-01-12T09:38:42.668Z,9.80
2023-01-12T09:41:12.714Z,9.90
2023-01-12T09:44:00.241Z,9.90
2023-01-12T09:46:57.463Z,9.90
2023-01-12T09:49:30.980Z,10.00
2023-01-12T09:51:57.905Z,10.00
2023-01-12T09:54:25.218Z,10.10
2023-01-12T09:57:29.040Z,10.10
2023-01-12T10:00:03.744Z,10.10
2023-01-12T10:02:43.296Z,10.20
2023-01-12T10:05:40.348Z,10.20
2023-01-12T10:08:21.161Z,10.20
2023-01-12T10:11:11.967Z,10.20
2023-01-12T10:13:47.257Z,10.20
2023-01-12T10:16:31.415Z,10.20
2023-01-12T10:19:03.048Z,10.20
2023-01-12T10:21:31.911Z,10.20
2023-01-12T10:23:58.976Z,10.20
2023-01-12T10:26:35.464Z,10.20
2023-01-12T10:29:02.736Z,10.20
2023-01-12T10:31:29.781Z,10.20
2023-01-12T10:34:10.036Z,10.10
2023-01-12T10:36:49.680Z,10.10
2023-01-12T10:39:30.893Z,10.10
2023-01-12T10:42:36.176Z,10.20
2023-01-12T10:45:22.353Z,10.20
2023-01-12T10:47:51.003Z,10.20
2023-01-12T10:50:25.661Z,10.20
2023-01-12T10:53:06.275Z,10.20
2023-01-12T10:55:38.088Z,10.20
2023-01-12T10:58:05.574Z,10.20
2023-01-12T11:00:32.576Z,10.20
2023-01-12T11:02:59.662Z,10.20
2023-01-12T11:05:38.581Z,10.20
2023-01-12T11:08:27.521Z,10.20
2023-01-12T11:10:54.635Z,10.30
2023-01-12T11:13:39.958Z,10.30
2023-01-12T11:16:19.346Z,10.30
2023-01-12T11:19:08.281Z,10.30
2023-01-12T11:21:39.380Z,10.30
2023-01-12T11:24:30.943Z,10.40
2023-01-12T11:27:07.447Z,10.50
2023-01-12T11:29:34.425Z,10.50
2023-01-12T11:32:16.902Z,10.50
2023-01-12T11:35:05.656Z,10.60
2023-01-12T11:37:38.284Z,10.60
2023-01-12T11:40:22.112Z,10.60
2023-01-12T11:43:09.592Z,10.70
2023-01-12T11:45:52.328Z,10.80
2023-01-12T11:48:30.679Z,10.80
2023-01-12T11:50:59.346Z,10.90
2023-01-12T11:53:26.621Z,10.90
2023-01-12T11:56:31.202Z,11.00
2023-01-12T11:59:17.077Z,11.00
2023-01-12T12:02:06.784Z,11.00
2023-01-12T12:05:11.719Z,11.00
2023-01-12T12:07:45.266Z,11.10
2023-01-12T12:10:25.297Z,11.10
2023-01-12T12:13:10.868Z,11.20
2023-01-12T12:15:49.708Z,11.20
2023-01-12T12:18:23.352Z,11.20
2023-01-12T12:21:03.838Z,11.20
2023-01-12T12:23:37.237Z,11.30
2023-01-12T12:26:21.298Z,11.30
2023-01-12T12:29:24.252Z,11.40
2023-01-12T12:32:09.340Z,11.40
2023-01-12T12:35:10.243Z,11.40
2023-01-12T12:37:37.178Z,11.50
2023-01-12T12:40:18.309Z,11.50
2023-01-12T12:43:18.383Z,11.60
2023-01-12T12:46:00.605Z,11.60
2023-01-12T12:48:50.479Z,11.70
2023-01-12T12:51:18.420Z,11.80
2023-01-12T12:53:49.725Z,11.80
2023-01-12T12:56:20.334Z,11.90
2023-01-12T12:58:55.028Z,11.90
2023-01-12T13:01:23.007Z,12.00
2023-01-12T13:03:52.026Z,12.00
2023-01-12T13:06:29.870Z,12.10
2023-01-12T13:08:59.496Z,12.10
2023-01-12T13:11:54.714Z,12.10
2023-01-12T13:14:33.249Z,12.10
2023-01-12T13:17:19.817Z,12.10
2023-01-12T13:20:04.322Z,12.20
2023-01-12T13:22:39.374Z,12.30
2023-01-12T13:25:22.269Z,12.40
2023-01-12T13:28:01.448Z,12.50
2023-01-12T13:30:31.413Z,12.50
2023-01-12T13:33:25.697Z,12.60
2023-01-12T13:35:52.809Z,12.60
2023-01-12T13:38:39.011Z,12.60
2023-01-12T13:41:05.904Z,12.70
2023-01-12T13:43:40.117Z,12.70
2023-01-12T13:46:17.132Z,12.70
2023-01-12T13:48:49.022Z,12.80
2023-01-12T13:51:28.083Z,12.80
2023-01-12T13:54:06.975Z,12.80
2023-01-12T13:56:34.083Z,12.90
2023-01-12T13:59:04.111Z,13.10
2023-01-12T14:01:37.908Z,13.20
2023-01-12T14:04:21.527Z,13.30
2023-01-12T14:07:07.368Z,13.30
2023-01-12T14:09:40.603Z,13.20
2023-01-12T14:12:20.469Z,13.20
2023-01-12T14:15:43.852Z,13.30
2023-01-12T14:18:14.962Z,13.30
2023-01-12T14:21:37.894Z,13.20
2023-01-12T14:24:21.445Z,13.20
2023-01-12T14:26:48.567Z,13.20
2023-01-12T14:29:15.671Z,13.20
2023-01-12T14:31:45.545Z,13.20
2023-01-12T14:34:35.017Z,13.20
2023-01-12T14:37:04.310Z,13.20
2023-01-12T14:39:36.893Z,13.20
2023-01-12T14:42:23.346Z,13.20
2023-01-12T14:45:12.052Z,13.20
2023-01-12T14:47:39.638Z,13.10
2023-01-12T14:50:12.531Z,13.00
2023-01-12T14:52:41.946Z,13.00
2023-01-12T14:55:14.897Z,12.90
2023-01-12T14:57:42.739Z,12.90
2023-01-12T15:00:27.029Z,12.80
2023-01-12T15:02:59.575Z,12.80
2023-01-12T15:05:28.982Z,12.70
2023-01-12T15:07:55.886Z,12.70
2023-01-12T15:10:33.807Z,12.60
2023-01-12T15:13:28.826Z,12.60
2023-01-12T15:16:15.596Z,12.60
2023-01-12T15:19:01.617Z,12.50
2023-01-12T15:21:48.029Z,12.50
2023-01-12T15:24:47.721Z,12.50
2023-01-12T15:27:17.262Z,12.40
2023-01-12T15:29:44.498Z,12.40
2023-01-12T15:32:21.825Z,12.40
2023-01-12T15:34:49.033Z,12.30
2023-01-12T15:37:18.347Z,12.20
2023-01-12T15:39:46.370Z,12.20
2023-01-12T15:42:25.975Z,12.10
2023-01-12T15:44:54.074Z,12.00
2023-01-12T15:47:21.324Z,12.00
2023-01-12T15:49:51.145Z,11.90
2023-01-12T15:52:25.434Z,11.90
2023-01-12T15:54:53.594Z,11.90
2023-01-12T15:57:20.700Z,11.90
2023-01-12T15:59:47.667Z,11.80
2023-01-12T16:02:34.724Z,11.80
2023-01-12T16:05:03.069Z,11.80
2023-01-12T16:07:30.216Z,11.70
2023-01-12T16:09:57.799Z,11.70
2023-01-12T16:12:25.342Z,11.60
2023-01-12T16:14:55.063Z,11.50
2023-01-12T16:17:22.179Z,11.50
2023-01-12T16:19:49.205Z,11.40
2023-01-12T16:22:21.136Z,11.40
2023-01-12T16:24:49.227Z,11.30
2023-01-12T16:27:16.971Z,11.30
2023-01-12T16:29:44.556Z,11.30
2023-01-12T16:32:11.978Z,11.20
2023-01-12T16:34:39.735Z,11.20
2023-01-12T16:37:14.616Z,11.10
2023-01-12T16:39:42.419Z,11.10
2023-01-12T16:42:10.241Z,11.00
2023-01-12T16:44:38.754Z,11.00
2023-01-12T16:47:07.051Z,11.00
2023-01-12T16:49:37.514Z,11.00
2023-01-12T16:52:05.585Z,10.90
2023-01-12T16:54:33.473Z,10.90
2023-01-12T16:57:00.556Z,10.90
2023-01-12T16:59:28.684Z,10.90
2023-01-12T17:01:55.924Z,10.80
2023-01-12T17:04:23.378Z,10.80
2023-01-12T17:06:50.533Z,10.80
2023-01-12T17:09:17.879Z,10.80
2023-01-12T17:11:45.102Z,10.70
2023-01-12T17:14:25.114Z,10.70
2023-01-12T17:16:54.782Z,10.70
2023-01-12T17:19:26.288Z,10.70
2023-01-12T17:21:54.902Z,10.70
2023-01-12T17:24:22.657Z,10.70
2023-01-12T17:26:52.298Z,10.70
2023-01-12T17:29:20.929Z,10.70
2023-01-12T17:31:48.393Z,10.70
2023-01-12T17:34:16.170Z,10.70
2023-01-12T17:36:43.719Z,10.70
2023-01-12T17:39:11.082Z,10.60
2023-01-12T17:41:56.559Z,10.60
2023-01-12T17:44:23.593Z,10.60
2023-01-12T17:46:50.656Z,10.60
2023-01-12T17:49:19.054Z,10.50
2023-01-12T17:51:46.055Z,10.50
2023-01-12T17:54:16.943Z,10.50
2023-01-12T17:56:44.366Z,10.50
2023-01-12T17:59:18.198Z,10.40
2023-01-12T18:01:46.593Z,10.40
2023-01-12T18:04:14.379Z,10.40
2023-01-12T18:06:42.091Z,10.40
2023-01-12T18:09:10.668Z,10.30
2023-01-12T18:11:39.035Z,10.40
2023-01-12T18:14:06.617Z,10.30
2023-01-12T18:16:34.597Z,10.30
2023-01-12T18:19:06.488Z,10.30
2023-01-12T18:21:34.505Z,10.30
2023-01-12T18:24:02.505Z,10.30
2023-01-12T18:26:33.611Z,10.30
2023-01-12T18:29:01.804Z,10.30
2023-01-12T18:31:37.367Z,10.20
2023-01-12T18:34:06.092Z,10.20
2023-01-12T18:36:35.435Z,10.20
2023-01-12T18:39:02.626Z,10.20
2023-01-12T18:41:48.323Z,10.20
2023-01-12T18:44:15.301Z,10.20
2023-01-12T18:47:02.215Z,10.20
2023-01-12T18:49:31.710Z,10.20
2023-01-12T18:52:17.411Z,10.20
2023-01-12T18:54:47.262Z,10.20
2023-01-12T18:57:19.176Z,10.20
2023-01-12T18:59:51.706Z,10.20
2023-01-12T19:02:19.707Z,10.20
2023-01-12T19:04:50.312Z,10.20
2023-01-12T19:07:28.233Z,10.20
2023-01-12T19:09:56.076Z,10.10
2023-01-12T19:12:23.212Z,10.10
2023-01-12T19:15:09.066Z,10.10
2023-01-12T19:17:40.400Z,10.00
2023-01-12T19:20:15.963Z,10.00
2023-01-12T19:23:01.787Z,10.00
2023-01-12T19:25:47.439Z,10.00
2023-01-12T19:28:35.956Z,10.00
2023-01-12T19:31:06.247Z,10.00
2023-01-12T19:33:34.487Z,10.00
2023-01-12T19:36:10.302Z,10.10
2023-01-12T19:38:37.689Z,10.10
2023-01-12T19:41:33.188Z,10.10
2023-01-12T19:44:05.155Z,10.10
2023-01-12T19:46:33.255Z,10.10
2023-01-12T19:49:00.684Z,10.10
2023-01-12T19:51:27.714Z,10.00
2023-01-12T19:53:55.536Z,10.10
2023-01-12T19:56:22.490Z,10.00
2023-01-12T19:58:50.717Z,10.10
2023-01-12T20:01:24.163Z,10.10
2023-01-12T20:03:51.265Z,10.00
2023-01-12T20:06:18.323Z,10.00
2023-01-12T20:08:45.350Z,10.10
2023-01-12T20:11:12.723Z,10.10
2023-01-12T20:13:39.796Z,10.10
2023-01-12T20:16:08.381Z,10.10
2023-01-12T20:18:35.754Z,10.10
2023-01-12T20:21:07.916Z,10.10
2023-01-12T20:23:34.836Z,10.10
2023-01-12T20:26:05.010Z,10.10
2023-01-12T20:28:31.993Z,10.00
2023-01-12T20:30:59.466Z,10.00
2023-01-12T20:33:28.021Z,10.00
2023-01-12T20:35:55.276Z,10.00
2023-01-12T20:38:22.734Z,10.00
2023-01-12T20:40:49.971Z,10.00
2023-01-12T20:43:18.694Z,10.00
2023-01-12T20:45:46.006Z,10.00
2023-01-12T20:48:14.130Z,10.00
2023-01-12T20:50:46.333Z,10.00
2023-01-12T20:53:15.753Z,10.00
2023-01-12T20:55:49.935Z,10.00
2023-01-12T20:58:19.217Z,9.90
2023-01-12T21:00:47.786Z,9.90
2023-01-12T21:03:15.221Z,9.90
2023-01-12T21:05:47.577Z,9.90
2023-01-12T21:08:15.657Z,9.90
2023-01-12T21:10:50.675Z,9.90
2023-01-12T21:13:18.235Z,9.90
2023-01-12T21:15:45.520Z,9.80
2023-01-12T21:18:13.533Z,9.80
2023-01-12T21:20:43.421Z,9.80
2023-01-12T21:23:11.461Z,9.70
2023-01-12T21:25:45.359Z,9.70
2023-01-12T21:28:12.579Z,9.70
2023-01-12T21:30:40.778Z,9.70
2023-01-12T21:33:07.803Z,9.60
2023-01-12T21:35:35.092Z,9.60
2023-01-12T21:38:02.979Z,9.60
2023-01-12T21:40:30.558Z,9.60
2023-01-12T21:43:10.274Z,9.50
2023-01-12T21:45:38.164Z,9.50
2023-01-12T21:48:05.619Z,9.50
2023-01-12T21:50:33.265Z,9.50
2023-01-12T21:53:02.634Z,9.40
2023-01-12T21:55:31.373Z,9.30
2023-01-12T21:57:59.302Z,9.20
2023-01-12T22:00:26.590Z,9.20
2023-01-12T22:02:55.026Z,9.20
2023-01-12T22:05:23.602Z,9.30
2023-01-12T22:07:51.714Z,9.30
2023-01-12T22:10:19.412Z,9.30
2023-01-12T22:12:54.519Z,9.30
2023-01-12T22:15:22.838Z,9.20
2023-01-12T22:17:51.494Z,9.20
2023-01-12T22:20:18.731Z,9.20
2023-01-12T22:22:45.756Z,9.20
2023-01-12T22:25:14.524Z,9.20
2023-01-12T22:27:42.195Z,9.20
2023-01-12T22:30:17.926Z,9.20
2023-01-12T22:32:45.326Z,9.20
2023-01-12T22:35:13.017Z,9.20
2023-01-12T22:37:41.116Z,9.30
2023-01-12T22:40:10.383Z,9.30
2023-01-12T22:42:56.327Z,9.30
2023-01-12T22:45:23.656Z,9.30
2023-01-12T22:47:55.029Z,9.30
2023-01-12T22:50:23.418Z,9.30
2023-01-12T22:52:52.499Z,9.30
2023-01-12T22:55:20.999Z,9.30
2023-01-12T22:57:48.296Z,9.30
2023-01-12T23:00:18.260Z,9.30
2023-01-12T23:03:01.417Z,9.30
2023-01-12T23:05:36.138Z,9.30
2023-01-12T23:08:06.996Z,9.20
2023-01-12T23:10:35.001Z,9.30
2023-01-12T23:13:11.610Z,9.30
2023-01-12T23:15:39.214Z,9.30
2023-01-12T23:18:07.172Z,9.20
2023-01-12T23:20:36.130Z,9.20
2023-01-12T23:23:04.150Z,9.10
2023-01-12T23:25:34.907Z,9.00
2023-01-12T23:28:02.339Z,8.90
2023-01-12T23:30:30.749Z,8.90
2023-01-12T23:33:04.111Z,8.90
2023-01-12T23:35:36.915Z,8.80
2023-01-12T23:38:04.098Z,8.80
2023-01-12T23:40:31.571Z,8.80
2023-01-12T23:42:59.510Z,8.80
2023-01-12T23:45:26.477Z,8.90
2023-01-12T23:47:53.528Z,8.90
2023-01-12T23:50:21.057Z,8.80
2023-01-12T23:52:50.080Z,8.80
2023-01-12T23:55:17.819Z,8.80
2023-01-12T23:57:48.361Z,8.80
